sensor_id;sensor_type;location;lat;lon;timestamp;P1;durP1;ratioP1;P2;durP2;ratioP2
3000;SDS011;1510;51.072;6.678;2023-10-19T00:00:45;1256.93;;;999.90;;
3000;SDS011;1510;51.072;6.678;2023-10-19T00:03:15;1267.00;;;999.90;;
3000;SDS011;1510;51.072;6.678;2023-10-19T00:05:41;1259.07;;;999.90;;
3000;SDS011;1510;51.072;6.678;2023-10-19T00:08:10;1273.47;;;999.90;;
3000;SDS011;1510;51.072;6.678;2023-10-19T00:10:41;1266.37;;;999.90;;
3000;SDS011;1510;51.072;6.678;2023-10-19T00:13:10;1264.40;;;999.90;;
3000;SDS011;1510;51.072;6.678;2023-10-19T00:15:39;1260.70;;;999.90;;
3000;SDS011;1510;51.072;6.678;2023-10-19T00:18:06;1277.20;;;999.90;;
3000;SDS011;1510;51.072;6.678;2023-10-19T00:20:46;1270.47;;;999.90;;
3000;SDS011;1510;51.072;6.678;2023-10-19T00:23:20;1254.53;;;999.90;;
3000;SDS011;1510;51.072;6.678;2023-10-19T00:25:54;1254.43;;;999.90;;
3000;SDS011;1510;51.072;6.678;2023-10-19T00:28:21;1254.67;;;999.90;;
3000;SDS011;1510;51.072;6.678;2023-10-19T00:30:52;1237.97;;;999.90;;
3000;SDS011;1510;51.072;6.678;2023-10-19T00:33:18;1243.33;;;999.90;;
3000;SDS011;1510;51.072;6.678;2023-10-19T00:35:46;1260.47;;;999.90;;
3000;SDS011;1510;51.072;6.678;2023-10-19T00:38:22;1262.43;;;999.90;;
3000;SDS011;1510;51.072;6.678;2023-10-19T00:41:06;1251.77;;;999.90;;
3000;SDS011;1510;51.072;6.678;2023-10-19T00:43:38;1265.80;;;999.90;;
3000;SDS011;1510;51.072;6.678;2023-10-19T00:46:10;1261.00;;;999.90;;
3000;SDS011;1510;51.072;6.678;2023-10-19T00:48:47;1250.40;;;999.90;;
3000;SDS011;1510;51.072;6.678;2023-10-19T00:51:19;1258.30;;;998.37;;
3000;SDS011;1510;51.072;6.678;2023-10-19T00:54:06;1269.23;;;999.90;;
3000;SDS011;1510;51.072;6.678;2023-10-19T00:56:38;1275.57;;;984.47;;
3000;SDS011;1510;51.072;6.678;2023-10-19T00:59:09;1280.47;;;978.37;;
3000;SDS011;1510;51.072;6.678;2023-10-19T01:01:41;1283.20;;;981.60;;
3000;SDS011;1510;51.072;6.678;2023-10-19T01:04:13;1270.57;;;977.60;;
3000;SDS011;1510;51.072;6.678;2023-10-19T01:06:40;1262.13;;;951.33;;
3000;SDS011;1510;51.072;6.678;2023-10-19T01:09:09;1242.80;;;941.20;;
3000;SDS011;1510;51.072;6.678;2023-10-19T01:11:40;1243.47;;;926.70;;
3000;SDS011;1510;51.072;6.678;2023-10-19T01:14:20;1250.70;;;927.13;;
3000;SDS011;1510;51.072;6.678;2023-10-19T01:16:50;1244.23;;;929.13;;
3000;SDS011;1510;51.072;6.678;2023-10-19T01:19:16;1239.23;;;929.33;;
3000;SDS011;1510;51.072;6.678;2023-10-19T01:21:45;1226.30;;;921.20;;
3000;SDS011;1510;51.072;6.678;2023-10-19T01:24:18;1232.90;;;927.97;;
3000;SDS011;1510;51.072;6.678;2023-10-19T01:26:52;1245.53;;;922.80;;
3000;SDS011;1510;51.072;6.678;2023-10-19T01:29:22;1244.43;;;922.97;;
3000;SDS011;1510;51.072;6.678;2023-10-19T01:31:52;1254.47;;;929.23;;
3000;SDS011;1510;51.072;6.678;2023-10-19T01:34:29;1281.00;;;951.60;;
3000;SDS011;1510;51.072;6.678;2023-10-19T01:36:58;1264.13;;;942.27;;
3000;SDS011;1510;51.072;6.678;2023-10-19T01:39:29;1304.13;;;962.70;;
3000;SDS011;1510;51.072;6.678;2023-10-19T01:41:55;1306.67;;;968.87;;
3000;SDS011;1510;51.072;6.678;2023-10-19T01:44:24;1294.97;;;961.53;;
3000;SDS011;1510;51.072;6.678;2023-10-19T01:46:50;1317.20;;;971.93;;
3000;SDS011;1510;51.072;6.678;2023-10-19T01:49:17;1321.23;;;976.30;;
3000;SDS011;1510;51.072;6.678;2023-10-19T01:51:51;1322.03;;;963.77;;
3000;SDS011;1510;51.072;6.678;2023-10-19T01:54:19;1329.67;;;975.77;;
3000;SDS011;1510;51.072;6.678;2023-10-19T01:56:50;1325.07;;;972.43;;
3000;SDS011;1510;51.072;6.678;2023-10-19T01:59:19;1322.13;;;961.73;;
3000;SDS011;1510;51.072;6.678;2023-10-19T02:01:46;1306.57;;;947.77;;
3000;SDS011;1510;51.072;6.678;2023-10-19T02:04:14;1317.87;;;965.03;;
3000;SDS011;1510;51.072;6.678;2023-10-19T02:06:41;1315.97;;;964.47;;
3000;SDS011;1510;51.072;6.678;2023-10-19T02:09:11;1334.37;;;977.10;;
3000;SDS011;1510;51.072;6.678;2023-10-19T02:11:47;1314.97;;;952.57;;
3000;SDS011;1510;51.072;6.678;2023-10-19T02:14:15;1329.87;;;974.77;;
3000;SDS011;1510;51.072;6.678;2023-10-19T02:16:44;1350.97;;;987.70;;
3000;SDS011;1510;51.072;6.678;2023-10-19T02:19:12;1323.63;;;955.57;;
3000;SDS011;1510;51.072;6.678;2023-10-19T02:21:38;1316.33;;;941.43;;
3000;SDS011;1510;51.072;6.678;2023-10-19T02:24:06;1317.93;;;958.97;;
3000;SDS011;1510;51.072;6.678;2023-10-19T02:26:32;1289.57;;;931.47;;
3000;SDS011;1510;51.072;6.678;2023-10-19T02:29:00;1290.53;;;939.67;;
3000;SDS011;1510;51.072;6.678;2023-10-19T02:31:33;1295.13;;;933.57;;
3000;SDS011;1510;51.072;6.678;2023-10-19T02:34:03;1279.37;;;928.40;;
3000;SDS011;1510;51.072;6.678;2023-10-19T02:36:29;1276.13;;;931.10;;
3000;SDS011;1510;51.072;6.678;2023-10-19T02:38:57;1287.87;;;937.10;;
3000;SDS011;1510;51.072;6.678;2023-10-19T02:41:24;1271.30;;;920.27;;
3000;SDS011;1510;51.072;6.678;2023-10-19T02:43:52;1254.53;;;902.03;;
3000;SDS011;1510;51.072;6.678;2023-10-19T02:46:26;1254.23;;;894.93;;
3000;SDS011;1510;51.072;6.678;2023-10-19T02:48:55;1257.73;;;902.47;;
3000;SDS011;1510;51.072;6.678;2023-10-19T02:51:22;1258.93;;;892.60;;
3000;SDS011;1510;51.072;6.678;2023-10-19T02:53:49;1259.37;;;893.80;;
3000;SDS011;1510;51.072;6.678;2023-10-19T02:56:15;1258.17;;;892.87;;
3000;SDS011;1510;51.072;6.678;2023-10-19T02:58:44;1266.17;;;893.50;;
3000;SDS011;1510;51.072;6.678;2023-10-19T03:01:14;1257.43;;;876.07;;
3000;SDS011;1510;51.072;6.678;2023-10-19T03:03:46;1255.53;;;889.10;;
3000;SDS011;1510;51.072;6.678;2023-10-19T03:06:15;1257.53;;;881.50;;
3000;SDS011;1510;51.072;6.678;2023-10-19T03:08:45;1259.37;;;882.40;;
3000;SDS011;1510;51.072;6.678;2023-10-19T03:11:11;1266.47;;;915.27;;
3000;SDS011;1510;51.072;6.678;2023-10-19T03:13:39;1265.13;;;906.33;;
3000;SDS011;1510;51.072;6.678;2023-10-19T03:16:06;1271.23;;;906.87;;
3000;SDS011;1510;51.072;6.678;2023-10-19T03:18:34;1251.43;;;885.07;;
3000;SDS011;1510;51.072;6.678;2023-10-19T03:21:00;1260.03;;;881.87;;
3000;SDS011;1510;51.072;6.678;2023-10-19T03:23:29;1270.77;;;901.93;;
3000;SDS011;1510;51.072;6.678;2023-10-19T03:25:59;1272.03;;;898.47;;
3000;SDS011;1510;51.072;6.678;2023-10-19T03:28:47;1264.67;;;889.77;;
3000;SDS011;1510;51.072;6.678;2023-10-19T03:31:20;1263.17;;;881.87;;
3000;SDS011;1510;51.072;6.678;2023-10-19T03:33:48;1267.63;;;885.77;;
3000;SDS011;1510;51.072;6.678;2023-10-19T03:36:18;1284.60;;;901.77;;
3000;SDS011;1510;51.072;6.678;2023-10-19T03:38:48;1252.70;;;870.37;;
3000;SDS011;1510;51.072;6.678;2023-10-19T03:41:16;1265.43;;;883.27;;
3000;SDS011;1510;51.072;6.678;2023-10-19T03:43:46;1260.73;;;876.50;;
3000;SDS011;1510;51.072;6.678;2023-10-19T03:46:16;1258.87;;;878.10;;
3000;SDS011;1510;51.072;6.678;2023-10-19T03:48:53;1244.67;;;877.27;;
3000;SDS011;1510;51.072;6.678;2023-10-19T03:51:24;1261.03;;;889.00;;
3000;SDS011;1510;51.072;6.678;2023-10-19T03:53:53;1248.53;;;874.57;;
3000;SDS011;1510;51.072;6.678;2023-10-19T03:56:26;1246.67;;;872.50;;
3000;SDS011;1510;51.072;6.678;2023-10-19T03:58:57;1253.30;;;870.73;;
3000;SDS011;1510;51.072;6.678;2023-10-19T04:01:25;1255.43;;;882.60;;
3000;SDS011;1510;51.072;6.678;2023-10-19T04:03:52;1238.57;;;880.27;;
3000;SDS011;1510;51.072;6.678;2023-10-19T04:06:20;1223.63;;;867.60;;
3000;SDS011;1510;51.072;6.678;2023-10-19T04:08:47;1216.47;;;851.17;;
3000;SDS011;1510;51.072;6.678;2023-10-19T04:11:17;1221.57;;;848.07;;
3000;SDS011;1510;51.072;6.678;2023-10-19T04:13:57;1230.97;;;873.17;;
3000;SDS011;1510;51.072;6.678;2023-10-19T04:16:28;1245.80;;;882.43;;
3000;SDS011;1510;51.072;6.678;2023-10-19T04:18:56;1231.17;;;836.23;;
3000;SDS011;1510;51.072;6.678;2023-10-19T04:21:23;1248.23;;;853.47;;
3000;SDS011;1510;51.072;6.678;2023-10-19T04:23:50;1226.20;;;852.07;;
3000;SDS011;1510;51.072;6.678;2023-10-19T04:26:18;1240.33;;;865.37;;
3000;SDS011;1510;51.072;6.678;2023-10-19T04:28:45;1250.47;;;867.03;;
3000;SDS011;1510;51.072;6.678;2023-10-19T04:31:15;1237.00;;;852.37;;
3000;SDS011;1510;51.072;6.678;2023-10-19T04:33:43;1256.27;;;848.60;;
3000;SDS011;1510;51.072;6.678;2023-10-19T04:36:15;1234.73;;;840.27;;
3000;SDS011;1510;51.072;6.678;2023-10-19T04:38:46;1241.67;;;866.47;;
3000;SDS011;1510;51.072;6.678;2023-10-19T04:41:13;1240.50;;;859.23;;
3000;SDS011;1510;51.072;6.678;2023-10-19T04:43:41;1255.33;;;866.77;;
3000;SDS011;1510;51.072;6.678;2023-10-19T04:46:15;1277.03;;;899.20;;
3000;SDS011;1510;51.072;6.678;2023-10-19T04:48:43;1227.13;;;856.60;;
3000;SDS011;1510;51.072;6.678;2023-10-19T04:51:11;1262.63;;;869.50;;
3000;SDS011;1510;51.072;6.678;2023-10-19T04:53:38;1218.13;;;854.23;;
3000;SDS011;1510;51.072;6.678;2023-10-19T04:56:05;1233.87;;;861.20;;
3000;SDS011;1510;51.072;6.678;2023-10-19T04:58:34;1201.43;;;849.33;;
3000;SDS011;1510;51.072;6.678;2023-10-19T05:01:03;1195.37;;;855.07;;
3000;SDS011;1510;51.072;6.678;2023-10-19T05:03:30;1215.77;;;853.10;;
3000;SDS011;1510;51.072;6.678;2023-10-19T05:05:57;1217.17;;;852.33;;
3000;SDS011;1510;51.072;6.678;2023-10-19T05:08:24;1208.97;;;842.67;;
3000;SDS011;1510;51.072;6.678;2023-10-19T05:10:53;1224.10;;;878.27;;
3000;SDS011;1510;51.072;6.678;2023-10-19T05:13:21;1231.47;;;886.30;;
3000;SDS011;1510;51.072;6.678;2023-10-19T05:15:48;1219.43;;;855.37;;
3000;SDS011;1510;51.072;6.678;2023-10-19T05:18:16;1220.17;;;848.00;;
3000;SDS011;1510;51.072;6.678;2023-10-19T05:20:43;1206.47;;;809.27;;
3000;SDS011;1510;51.072;6.678;2023-10-19T05:23:11;1218.77;;;832.40;;
3000;SDS011;1510;51.072;6.678;2023-10-19T05:25:38;1212.87;;;831.67;;
3000;SDS011;1510;51.072;6.678;2023-10-19T05:28:06;1209.33;;;836.87;;
3000;SDS011;1510;51.072;6.678;2023-10-19T05:30:33;1208.43;;;849.03;;
3000;SDS011;1510;51.072;6.678;2023-10-19T05:33:01;1230.10;;;864.13;;
3000;SDS011;1510;51.072;6.678;2023-10-19T05:35:30;1215.27;;;860.73;;
3000;SDS011;1510;51.072;6.678;2023-10-19T05:38:00;1198.73;;;822.87;;
3000;SDS011;1510;51.072;6.678;2023-10-19T05:40:27;1200.93;;;852.77;;
3000;SDS011;1510;51.072;6.678;2023-10-19T05:42:55;1177.67;;;836.33;;
3000;SDS011;1510;51.072;6.678;2023-10-19T05:45:25;1178.27;;;835.37;;
3000;SDS011;1510;51.072;6.678;2023-10-19T05:47:53;1168.67;;;834.43;;
3000;SDS011;1510;51.072;6.678;2023-10-19T05:50:21;1155.03;;;827.07;;
3000;SDS011;1510;51.072;6.678;2023-10-19T05:52:49;1138.67;;;825.10;;
3000;SDS011;1510;51.072;6.678;2023-10-19T05:55:17;1172.83;;;835.57;;
3000;SDS011;1510;51.072;6.678;2023-10-19T05:57:46;1185.30;;;846.43;;
3000;SDS011;1510;51.072;6.678;2023-10-19T06:00:14;1162.97;;;834.73;;
3000;SDS011;1510;51.072;6.678;2023-10-19T06:02:43;1158.57;;;842.40;;
3000;SDS011;1510;51.072;6.678;2023-10-19T06:05:11;1185.53;;;845.87;;
3000;SDS011;1510;51.072;6.678;2023-10-19T06:07:40;1172.37;;;847.60;;
3000;SDS011;1510;51.072;6.678;2023-10-19T06:10:10;1159.07;;;847.73;;
3000;SDS011;1510;51.072;6.678;2023-10-19T06:12:40;1176.27;;;853.03;;
3000;SDS011;1510;51.072;6.678;2023-10-19T06:15:08;1179.70;;;870.83;;
3000;SDS011;1510;51.072;6.678;2023-10-19T06:17:37;1142.17;;;865.40;;
3000;SDS011;1510;51.072;6.678;2023-10-19T06:20:05;1145.10;;;857.60;;
3000;SDS011;1510;51.072;6.678;2023-10-19T06:22:33;1136.10;;;858.77;;
3000;SDS011;1510;51.072;6.678;2023-10-19T06:25:01;1121.20;;;829.07;;
3000;SDS011;1510;51.072;6.678;2023-10-19T06:27:31;1123.37;;;834.63;;
3000;SDS011;1510;51.072;6.678;2023-10-19T06:29:57;1129.43;;;827.73;;
3000;SDS011;1510;51.072;6.678;2023-10-19T06:32:24;1128.13;;;825.70;;
3000;SDS011;1510;51.072;6.678;2023-10-19T06:34:52;1135.37;;;819.73;;
3000;SDS011;1510;51.072;6.678;2023-10-19T06:37:19;1135.13;;;853.17;;
3000;SDS011;1510;51.072;6.678;2023-10-19T06:39:46;1134.30;;;833.97;;
3000;SDS011;1510;51.072;6.678;2023-10-19T06:42:15;1124.33;;;816.40;;
3000;SDS011;1510;51.072;6.678;2023-10-19T06:44:44;1119.83;;;818.47;;
3000;SDS011;1510;51.072;6.678;2023-10-19T06:47:11;1116.27;;;821.10;;
3000;SDS011;1510;51.072;6.678;2023-10-19T06:49:38;1175.63;;;844.35;;
3000;SDS011;1510;51.072;6.678;2023-10-19T06:52:06;1117.23;;;826.50;;
3000;SDS011;1510;51.072;6.678;2023-10-19T06:54:36;1113.83;;;825.07;;
3000;SDS011;1510;51.072;6.678;2023-10-19T06:57:04;1142.27;;;853.53;;
3000;SDS011;1510;51.072;6.678;2023-10-19T06:59:33;1141.63;;;833.67;;
3000;SDS011;1510;51.072;6.678;2023-10-19T07:02:01;1132.73;;;826.27;;
3000;SDS011;1510;51.072;6.678;2023-10-19T07:04:29;1114.50;;;823.57;;
3000;SDS011;1510;51.072;6.678;2023-10-19T07:06:56;1113.03;;;823.43;;
3000;SDS011;1510;51.072;6.678;2023-10-19T07:09:23;1097.43;;;826.73;;
3000;SDS011;1510;51.072;6.678;2023-10-19T07:11:50;1100.30;;;833.00;;
3000;SDS011;1510;51.072;6.678;2023-10-19T07:14:20;1106.73;;;825.53;;
3000;SDS011;1510;51.072;6.678;2023-10-19T07:16:48;1117.23;;;823.13;;
3000;SDS011;1510;51.072;6.678;2023-10-19T07:19:18;1110.70;;;808.93;;
3000;SDS011;1510;51.072;6.678;2023-10-19T07:21:45;1104.07;;;802.40;;
3000;SDS011;1510;51.072;6.678;2023-10-19T07:24:18;1098.00;;;805.00;;
3000;SDS011;1510;51.072;6.678;2023-10-19T07:26:48;1107.93;;;816.40;;
3000;SDS011;1510;51.072;6.678;2023-10-19T07:29:28;1098.40;;;814.00;;
3000;SDS011;1510;51.072;6.678;2023-10-19T07:31:56;1081.03;;;806.67;;
3000;SDS011;1510;51.072;6.678;2023-10-19T07:34:25;1062.67;;;820.47;;
3000;SDS011;1510;51.072;6.678;2023-10-19T07:36:54;1066.87;;;815.73;;
3000;SDS011;1510;51.072;6.678;2023-10-19T07:39:24;1056.33;;;815.47;;
3000;SDS011;1510;51.072;6.678;2023-10-19T07:41:51;1057.00;;;829.77;;
3000;SDS011;1510;51.072;6.678;2023-10-19T07:44:18;1032.47;;;821.40;;
3000;SDS011;1510;51.072;6.678;2023-10-19T07:46:45;1023.53;;;811.17;;
3000;SDS011;1510;51.072;6.678;2023-10-19T07:49:12;999.40;;;805.47;;
3000;SDS011;1510;51.072;6.678;2023-10-19T07:51:42;998.40;;;816.27;;
3000;SDS011;1510;51.072;6.678;2023-10-19T07:54:11;968.40;;;812.53;;
3000;SDS011;1510;51.072;6.678;2023-10-19T07:56:39;928.30;;;800.23;;
3000;SDS011;1510;51.072;6.678;2023-10-19T07:59:06;934.50;;;808.00;;
3000;SDS011;1510;51.072;6.678;2023-10-19T08:01:33;940.03;;;812.03;;
3000;SDS011;1510;51.072;6.678;2023-10-19T08:04:01;948.50;;;810.90;;
3000;SDS011;1510;51.072;6.678;2023-10-19T08:06:28;945.43;;;801.47;;
3000;SDS011;1510;51.072;6.678;2023-10-19T08:08:57;918.27;;;813.60;;
3000;SDS011;1510;51.072;6.678;2023-10-19T08:11:24;908.37;;;809.47;;
3000;SDS011;1510;51.072;6.678;2023-10-19T08:13:51;899.37;;;802.77;;
3000;SDS011;1510;51.072;6.678;2023-10-19T08:16:20;899.73;;;804.27;;
3000;SDS011;1510;51.072;6.678;2023-10-19T08:18:47;902.90;;;809.40;;
3000;SDS011;1510;51.072;6.678;2023-10-19T08:21:14;897.97;;;806.47;;
3000;SDS011;1510;51.072;6.678;2023-10-19T08:23:42;901.37;;;811.20;;
3000;SDS011;1510;51.072;6.678;2023-10-19T08:26:11;899.93;;;811.03;;
3000;SDS011;1510;51.072;6.678;2023-10-19T08:28:40;908.90;;;822.93;;
3000;SDS011;1510;51.072;6.678;2023-10-19T08:31:08;915.00;;;832.10;;
3000;SDS011;1510;51.072;6.678;2023-10-19T08:33:35;928.73;;;848.83;;
3000;SDS011;1510;51.072;6.678;2023-10-19T08:36:04;920.17;;;845.57;;
3000;SDS011;1510;51.072;6.678;2023-10-19T08:38:31;921.28;;;852.05;;
3000;SDS011;1510;51.072;6.678;2023-10-19T08:40:59;953.90;;;879.60;;
3000;SDS011;1510;51.072;6.678;2023-10-19T08:43:45;914.60;;;848.87;;
3000;SDS011;1510;51.072;6.678;2023-10-19T08:46:14;922.50;;;857.13;;
3000;SDS011;1510;51.072;6.678;2023-10-19T08:48:41;922.20;;;853.23;;
3000;SDS011;1510;51.072;6.678;2023-10-19T08:51:08;929.20;;;861.40;;
3000;SDS011;1510;51.072;6.678;2023-10-19T08:53:36;917.00;;;853.47;;
3000;SDS011;1510;51.072;6.678;2023-10-19T08:56:05;899.43;;;842.13;;
3000;SDS011;1510;51.072;6.678;2023-10-19T08:58:33;881.37;;;829.03;;
3000;SDS011;1510;51.072;6.678;2023-10-19T09:01:02;794.63;;;754.30;;
3000;SDS011;1510;51.072;6.678;2023-10-19T09:03:35;543.73;;;521.90;;
3000;SDS011;1510;51.072;6.678;2023-10-19T09:06:02;351.00;;;338.70;;
3000;SDS011;1510;51.072;6.678;2023-10-19T09:08:30;185.30;;;178.50;;
3000;SDS011;1510;51.072;6.678;2023-10-19T09:11:08;189.50;;;182.67;;
3000;SDS011;1510;51.072;6.678;2023-10-19T09:13:43;75.40;;;72.13;;
3000;SDS011;1510;51.072;6.678;2023-10-19T09:16:13;12.97;;;11.50;;
3000;SDS011;1510;51.072;6.678;2023-10-19T09:18:40;11.10;;;10.00;;
3000;SDS011;1510;51.072;6.678;2023-10-19T09:21:08;11.67;;;8.10;;
3000;SDS011;1510;51.072;6.678;2023-10-19T09:23:38;10.97;;;7.90;;
3000;SDS011;1510;51.072;6.678;2023-10-19T09:26:07;11.33;;;6.97;;
3000;SDS011;1510;51.072;6.678;2023-10-19T09:28:34;11.67;;;6.53;;
3000;SDS011;1510;51.072;6.678;2023-10-19T09:31:02;13.10;;;6.77;;
3000;SDS011;1510;51.072;6.678;2023-10-19T09:33:32;11.77;;;5.90;;
3000;SDS011;1510;51.072;6.678;2023-10-19T09:36:00;9.53;;;6.73;;
3000;SDS011;1510;51.072;6.678;2023-10-19T09:38:29;15.10;;;7.60;;
3000;SDS011;1510;51.072;6.678;2023-10-19T09:40:58;12.33;;;6.77;;
3000;SDS011;1510;51.072;6.678;2023-10-19T09:43:30;10.27;;;5.60;;
3000;SDS011;1510;51.072;6.678;2023-10-19T09:46:00;12.97;;;5.63;;
3000;SDS011;1510;51.072;6.678;2023-10-19T09:48:32;9.73;;;4.10;;
3000;SDS011;1510;51.072;6.678;2023-10-19T09:51:03;14.53;;;4.70;;
3000;SDS011;1510;51.072;6.678;2023-10-19T09:53:30;14.90;;;4.20;;
3000;SDS011;1510;51.072;6.678;2023-10-19T09:55:58;8.80;;;3.40;;
3000;SDS011;1510;51.072;6.678;2023-10-19T09:58:27;7.67;;;3.10;;
3000;SDS011;1510;51.072;6.678;2023-10-19T10:00:56;9.37;;;3.20;;
3000;SDS011;1510;51.072;6.678;2023-10-19T10:03:44;9.77;;;4.00;;
3000;SDS011;1510;51.072;6.678;2023-10-19T10:06:12;11.70;;;3.33;;
3000;SDS011;1510;51.072;6.678;2023-10-19T10:08:40;11.60;;;4.00;;
3000;SDS011;1510;51.072;6.678;2023-10-19T10:11:16;10.43;;;5.45;;
3000;SDS011;1510;51.072;6.678;2023-10-19T10:13:44;15.77;;;6.00;;
3000;SDS011;1510;51.072;6.678;2023-10-19T10:16:15;9.67;;;3.43;;
3000;SDS011;1510;51.072;6.678;2023-10-19T10:18:47;9.87;;;3.60;;
3000;SDS011;1510;51.072;6.678;2023-10-19T10:21:16;14.20;;;4.63;;
3000;SDS011;1510;51.072;6.678;2023-10-19T10:23:46;12.57;;;4.50;;
3000;SDS011;1510;51.072;6.678;2023-10-19T10:26:14;11.57;;;4.07;;
3000;SDS011;1510;51.072;6.678;2023-10-19T10:28:46;11.03;;;3.63;;
3000;SDS011;1510;51.072;6.678;2023-10-19T10:31:14;10.80;;;3.67;;
3000;SDS011;1510;51.072;6.678;2023-10-19T10:33:48;7.33;;;3.50;;
3000;SDS011;1510;51.072;6.678;2023-10-19T10:36:16;9.70;;;3.40;;
3000;SDS011;1510;51.072;6.678;2023-10-19T10:38:44;9.27;;;3.53;;
3000;SDS011;1510;51.072;6.678;2023-10-19T10:41:12;10.33;;;3.60;;
3000;SDS011;1510;51.072;6.678;2023-10-19T10:43:50;15.77;;;4.50;;
3000;SDS011;1510;51.072;6.678;2023-10-19T10:46:19;10.00;;;4.07;;
3000;SDS011;1510;51.072;6.678;2023-10-19T10:48:48;17.50;;;4.90;;
3000;SDS011;1510;51.072;6.678;2023-10-19T10:51:16;17.43;;;3.63;;
3000;SDS011;1510;51.072;6.678;2023-10-19T10:53:47;10.87;;;4.00;;
3000;SDS011;1510;51.072;6.678;2023-10-19T10:56:16;10.77;;;3.87;;
3000;SDS011;1510;51.072;6.678;2023-10-19T10:58:43;15.67;;;4.00;;
3000;SDS011;1510;51.072;6.678;2023-10-19T11:01:10;9.57;;;3.90;;
3000;SDS011;1510;51.072;6.678;2023-10-19T11:03:38;10.90;;;3.70;;
3000;SDS011;1510;51.072;6.678;2023-10-19T11:06:06;13.90;;;3.90;;
3000;SDS011;1510;51.072;6.678;2023-10-19T11:08:34;11.50;;;3.87;;
3000;SDS011;1510;51.072;6.678;2023-10-19T11:11:02;17.47;;;10.80;;
3000;SDS011;1510;51.072;6.678;2023-10-19T11:13:30;11.83;;;4.40;;
3000;SDS011;1510;51.072;6.678;2023-10-19T11:16:00;8.50;;;3.60;;
3000;SDS011;1510;51.072;6.678;2023-10-19T11:18:31;10.83;;;4.70;;
3000;SDS011;1510;51.072;6.678;2023-10-19T11:21:00;11.30;;;3.70;;
3000;SDS011;1510;51.072;6.678;2023-10-19T11:23:37;11.60;;;3.57;;
3000;SDS011;1510;51.072;6.678;2023-10-19T11:26:05;7.60;;;3.17;;
3000;SDS011;1510;51.072;6.678;2023-10-19T11:28:32;7.43;;;2.77;;
3000;SDS011;1510;51.072;6.678;2023-10-19T11:31:12;13.63;;;4.70;;
3000;SDS011;1510;51.072;6.678;2023-10-19T11:33:41;8.43;;;3.10;;
3000;SDS011;1510;51.072;6.678;2023-10-19T11:36:09;11.23;;;3.20;;
3000;SDS011;1510;51.072;6.678;2023-10-19T11:38:39;13.70;;;4.40;;
3000;SDS011;1510;51.072;6.678;2023-10-19T11:41:07;6.80;;;3.27;;
3000;SDS011;1510;51.072;6.678;2023-10-19T11:43:34;12.90;;;3.50;;
3000;SDS011;1510;51.072;6.678;2023-10-19T11:46:01;9.60;;;3.63;;
3000;SDS011;1510;51.072;6.678;2023-10-19T11:48:30;10.20;;;4.47;;
3000;SDS011;1510;51.072;6.678;2023-10-19T11:50:58;8.90;;;3.40;;
3000;SDS011;1510;51.072;6.678;2023-10-19T11:53:25;15.57;;;3.93;;
3000;SDS011;1510;51.072;6.678;2023-10-19T11:55:59;9.70;;;4.60;;
3000;SDS011;1510;51.072;6.678;2023-10-19T11:58:26;11.70;;;4.70;;
3000;SDS011;1510;51.072;6.678;2023-10-19T12:00:53;9.97;;;3.60;;
3000;SDS011;1510;51.072;6.678;2023-10-19T12:03:20;11.77;;;3.40;;
3000;SDS011;1510;51.072;6.678;2023-10-19T12:05:48;7.10;;;3.00;;
3000;SDS011;1510;51.072;6.678;2023-10-19T12:08:15;9.03;;;3.37;;
3000;SDS011;1510;51.072;6.678;2023-10-19T12:10:42;7.90;;;3.10;;
3000;SDS011;1510;51.072;6.678;2023-10-19T12:13:10;8.97;;;3.17;;
3000;SDS011;1510;51.072;6.678;2023-10-19T12:15:37;9.10;;;3.80;;
3000;SDS011;1510;51.072;6.678;2023-10-19T12:18:04;11.00;;;3.60;;
3000;SDS011;1510;51.072;6.678;2023-10-19T12:20:33;11.03;;;3.70;;
3000;SDS011;1510;51.072;6.678;2023-10-19T12:23:00;7.83;;;3.47;;
3000;SDS011;1510;51.072;6.678;2023-10-19T12:25:30;16.80;;;4.07;;
3000;SDS011;1510;51.072;6.678;2023-10-19T12:27:57;13.57;;;3.77;;
3000;SDS011;1510;51.072;6.678;2023-10-19T12:30:26;8.37;;;3.83;;
3000;SDS011;1510;51.072;6.678;2023-10-19T12:32:59;10.25;;;6.07;;
3000;SDS011;1510;51.072;6.678;2023-10-19T12:35:26;11.97;;;9.00;;
3000;SDS011;1510;51.072;6.678;2023-10-19T12:38:09;13.23;;;10.75;;
3000;SDS011;1510;51.072;6.678;2023-10-19T12:40:41;20.70;;;19.13;;
3000;SDS011;1510;51.072;6.678;2023-10-19T12:43:09;11.87;;;8.40;;
3000;SDS011;1510;51.072;6.678;2023-10-19T12:45:39;17.70;;;9.07;;
3000;SDS011;1510;51.072;6.678;2023-10-19T12:48:07;11.13;;;8.73;;
3000;SDS011;1510;51.072;6.678;2023-10-19T12:50:36;21.07;;;11.60;;
3000;SDS011;1510;51.072;6.678;2023-10-19T12:53:03;18.73;;;12.93;;
3000;SDS011;1510;51.072;6.678;2023-10-19T12:55:31;14.80;;;13.60;;
3000;SDS011;1510;51.072;6.678;2023-10-19T12:57:58;28.17;;;26.27;;
3000;SDS011;1510;51.072;6.678;2023-10-19T13:00:32;178.40;;;172.23;;
3000;SDS011;1510;51.072;6.678;2023-10-19T13:03:07;448.60;;;431.70;;
3000;SDS011;1510;51.072;6.678;2023-10-19T13:05:34;666.60;;;637.53;;
3000;SDS011;1510;51.072;6.678;2023-10-19T13:08:04;795.92;;;750.67;;
3000;SDS011;1510;51.072;6.678;2023-10-19T13:10:32;830.80;;;786.47;;
3000;SDS011;1510;51.072;6.678;2023-10-19T13:13:02;822.27;;;779.73;;
3000;SDS011;1510;51.072;6.678;2023-10-19T13:15:31;860.37;;;814.67;;
3000;SDS011;1510;51.072;6.678;2023-10-19T13:17:59;860.67;;;814.50;;
3000;SDS011;1510;51.072;6.678;2023-10-19T13:20:28;896.40;;;842.90;;
3000;SDS011;1510;51.072;6.678;2023-10-19T13:22:59;913.43;;;857.63;;
3000;SDS011;1510;51.072;6.678;2023-10-19T13:25:28;920.47;;;863.77;;
3000;SDS011;1510;51.072;6.678;2023-10-19T13:28:07;934.57;;;873.77;;
3000;SDS011;1510;51.072;6.678;2023-10-19T13:30:38;934.07;;;870.13;;
3000;SDS011;1510;51.072;6.678;2023-10-19T13:33:05;942.00;;;877.10;;
3000;SDS011;1510;51.072;6.678;2023-10-19T13:35:35;937.47;;;869.50;;
3000;SDS011;1510;51.072;6.678;2023-10-19T13:38:03;935.67;;;869.23;;
3000;SDS011;1510;51.072;6.678;2023-10-19T13:40:31;943.93;;;873.80;;
3000;SDS011;1510;51.072;6.678;2023-10-19T13:42:58;937.40;;;867.33;;
3000;SDS011;1510;51.072;6.678;2023-10-19T13:45:25;938.23;;;870.03;;
3000;SDS011;1510;51.072;6.678;2023-10-19T13:47:52;931.47;;;860.77;;
3000;SDS011;1510;51.072;6.678;2023-10-19T13:50:23;934.50;;;863.20;;
3000;SDS011;1510;51.072;6.678;2023-10-19T13:52:53;931.43;;;855.23;;
3000;SDS011;1510;51.072;6.678;2023-10-19T13:55:21;919.40;;;836.40;;
3000;SDS011;1510;51.072;6.678;2023-10-19T13:57:49;901.53;;;811.87;;
3000;SDS011;1510;51.072;6.678;2023-10-19T14:00:16;915.73;;;824.20;;
3000;SDS011;1510;51.072;6.678;2023-10-19T14:02:50;924.87;;;827.97;;
3000;SDS011;1510;51.072;6.678;2023-10-19T14:05:17;1083.17;;;979.13;;
3000;SDS011;1510;51.072;6.678;2023-10-19T14:07:45;1267.87;;;999.90;;
3000;SDS011;1510;51.072;6.678;2023-10-19T14:10:13;1286.17;;;999.90;;
3000;SDS011;1510;51.072;6.678;2023-10-19T14:12:41;1234.13;;;999.90;;
3000;SDS011;1510;51.072;6.678;2023-10-19T14:15:12;1264.60;;;999.90;;
3000;SDS011;1510;51.072;6.678;2023-10-19T14:17:43;1254.67;;;999.90;;
3000;SDS011;1510;51.072;6.678;2023-10-19T14:20:12;1230.10;;;999.90;;
3000;SDS011;1510;51.072;6.678;2023-10-19T14:22:40;1219.43;;;999.90;;
3000;SDS011;1510;51.072;6.678;2023-10-19T14:25:08;1174.70;;;999.90;;
3000;SDS011;1510;51.072;6.678;2023-10-19T14:27:39;1175.90;;;999.90;;
3000;SDS011;1510;51.072;6.678;2023-10-19T14:30:08;1182.53;;;999.90;;
3000;SDS011;1510;51.072;6.678;2023-10-19T14:32:36;1223.37;;;999.90;;
3000;SDS011;1510;51.072;6.678;2023-10-19T14:35:05;1260.90;;;999.90;;
3000;SDS011;1510;51.072;6.678;2023-10-19T14:37:34;1270.00;;;999.90;;